Time;durP1;ratioP1;P1;durP2;ratioP2;P2;SDS_P1;SDS_P2;PMS_P1;PMS_P2;Temp;Humidity;BMP_temperature;BMP_pressure;BME280_temperature;BME280_humidity;BME280_pressure;Samples;Min_cycle;Max_cycle;Signal;HPM_P1;HPM_P2
2024/02/28 00:01:25;;;;;;;23.57;9.87;;;0.30;99.90;;;;;;5042740;28;20188;-55
2024/02/28 00:03:50;;;;;;;20.97;9.67;;;0.30;99.90;;;;;;5045221;28;20716;-55
2024/02/28 00:06:17;;;;;;;23.33;10.50;;;0.20;99.90;;;;;;5041897;28;20742;-53
2024/02/28 00:08:42;;;;;;;20.60;9.63;;;0.10;99.90;;;;;;5031380;28;20691;-53
2024/02/28 00:11:08;;;;;;;22.27;10.43;;;0.00;99.90;;;;;;5032640;28;20203;-54
2024/02/28 00:13:33;;;;;;;26.53;10.40;;;0.00;99.90;;;;;;5041144;28;20215;-53
2024/02/28 00:15:59;;;;;;;22.47;10.37;;;0.00;99.90;;;;;;5037188;28;20187;-55
2024/02/28 00:18:24;;;;;;;28.03;10.73;;;-0.10;99.90;;;;;;5031976;28;20666;-53
2024/02/28 00:20:50;;;;;;;20.47;10.17;;;-0.20;99.90;;;;;;5033435;28;20199;-54
2024/02/28 00:23:16;;;;;;;22.60;10.17;;;-0.10;99.90;;;;;;5047085;28;20212;-53
2024/02/28 00:25:41;;;;;;;26.40;10.47;;;-0.10;99.90;;;;;;5048790;28;20210;-57
2024/02/28 00:28:07;;;;;;;21.10;9.67;;;-0.10;99.90;;;;;;5039550;28;20219;-55
2024/02/28 00:30:33;;;;;;;24.07;10.10;;;;;;;;;;5040161;28;20207;-54
2024/02/28 00:33:00;;;;;;;25.53;10.20;;;;;;;;;;5034400;28;20211;-54
2024/02/28 00:35:26;;;;;;;25.57;10.40;;;;;;;;;;5045514;28;20635;-56
2024/02/28 00:37:51;;;;;;;28.40;11.23;;;;;;;;;;5031020;28;20184;-52
2024/02/28 00:40:17;;;;;;;26.30;11.47;;;;;;;;;;5040173;28;20522;-52
2024/02/28 00:42:45;;;;;;;23.60;11.50;;;;;;;;;;5040378;28;20264;-52
2024/02/28 00:45:11;;;;;;;30.43;12.40;;;;;;;;;;5039129;28;20607;-55
2024/02/28 00:47:37;;;;;;;31.40;11.60;;;;;;;;;;5031184;28;20180;-55
2024/02/28 00:50:03;;;;;;;25.97;11.13;;;;;;;;;;5046606;28;20184;-54
2024/02/28 00:52:32;;;;;;;28.53;11.47;;;;;;;;;;5038452;28;20246;-52
2024/02/28 00:54:58;;;;;;;31.37;11.23;;;;;;;;;;5043311;28;20194;-53
2024/02/28 00:57:24;;;;;;;28.30;10.47;;;;;;;;;;5036828;28;20176;-52
2024/02/28 00:59:50;;;;;;;23.37;10.47;;;;;;;;;;5031283;28;20575;-52
2024/02/28 01:02:16;;;;;;;23.00;10.27;;;;;;;;;;5036312;28;20239;-52
2024/02/28 01:04:42;;;;;;;24.17;10.40;;;;;;;;;;5043094;28;20256;-52
2024/02/28 01:07:08;;;;;;;26.87;10.03;;;;;;;;;;5039265;28;20300;-55
2024/02/28 01:09:34;;;;;;;20.50;9.20;;;;;;;;;;5039503;28;20271;-51
2024/02/28 01:12:00;;;;;;;25.17;10.63;;;;;;;;;;5050103;28;20704;-55
2024/02/28 01:14:26;;;;;;;22.37;10.70;;;;;;;;;;5042822;28;20183;-55
2024/02/28 01:16:52;;;;;;;23.43;10.17;;;;;;;;;;5042608;28;20184;-54
2024/02/28 01:19:18;;;;;;;28.60;11.27;;;;;;;;;;5037082;28;20586;-53
2024/02/28 01:21:44;;;;;;;29.20;11.40;;;;;;;;;;5031034;28;20187;-51
2024/02/28 01:24:10;;;;;;;28.67;11.83;;;;;;;;;;5039275;28;20211;-52
2024/02/28 01:26:36;;;;;;;26.37;10.90;;;;;;;;;;5030914;28;20226;-51
2024/02/28 01:29:02;;;;;;;28.77;11.47;;;;;;;;;;5033091;28;20270;-52
2024/02/28 01:31:28;;;;;;;25.43;11.07;;;;;;;;;;5035935;28;20204;-51
2024/02/28 01:33:55;;;;;;;30.20;12.07;;;;;;;;;;5040754;28;20190;-57
2024/02/28 01:36:21;;;;;;;26.00;11.30;;;;;;;;;;5036817;28;20191;-53
2024/02/28 01:38:47;;;;;;;30.80;11.77;;;;;;;;;;5030137;28;20599;-52
2024/02/28 01:41:13;;;;;;;33.20;12.37;;;;;;;;;;5035240;28;20191;-52
2024/02/28 01:43:39;;;;;;;26.50;11.67;;;;;;;;;;5034252;28;20341;-55
2024/02/28 01:46:14;;;;;;;29.63;11.93;;;;;;;;;;5038699;28;20570;-56
2024/02/28 01:48:40;;;;;;;30.17;12.00;;;;;;;;;;5038404;28;20182;-54
2024/02/28 01:51:07;;;;;;;29.30;12.27;;;;;;;;;;5041786;28;20218;-52
2024/02/28 01:53:33;;;;;;;35.90;13.47;;;;;;;;;;5043594;28;20314;-51
2024/02/28 01:55:59;;;;;;;31.47;12.00;;;;;;;;;;5038467;28;20717;-52
2024/02/28 01:58:25;;;;;;;32.63;12.20;;;;;;;;;;5029925;28;20263;-56
2024/02/28 02:00:52;;;;;;;24.63;11.30;;;;;;;;;;5031591;28;20274;-51
2024/02/28 02:03:18;;;;;;;29.40;11.73;;;;;;;;;;5041918;28;20215;-52
2024/02/28 02:05:44;;;;;;;28.00;11.90;;;;;;;;;;5041629;28;20201;-55
2024/02/28 02:08:10;;;;;;;24.47;11.20;;;;;;;;;;5037313;28;20603;-52
2024/02/28 02:10:36;;;;;;;27.13;11.93;;;;;;;;;;5038157;28;20208;-53
2024/02/28 02:13:06;;;;;;;30.43;11.77;;;;;;;;;;5032943;28;20674;-51
2024/02/28 02:15:32;;;;;;;28.93;12.00;;;;;;;;;;5049958;28;20183;-55
2024/02/28 02:17:58;;;;;;;28.27;11.60;;;;;;;;;;5030510;28;20190;-53
2024/02/28 02:20:26;;;;;;;27.80;11.77;;;;;;;;;;5030102;28;20180;-56
2024/02/28 02:22:53;;;;;;;26.23;11.50;;;;;;;;;;5039367;28;20226;-54
2024/02/28 02:25:19;;;;;;;37.57;13.57;;;;;;;;;;5041641;28;20211;-53
2024/02/28 02:27:45;;;;;;;27.03;11.40;;;;;;;;;;5048669;28;20187;-52
2024/02/28 02:30:11;;;;;;;29.03;11.47;;;;;;;;;;5042105;28;20240;-51
2024/02/28 02:32:37;;;;;;;31.50;12.20;;;;;;;;;;5033792;28;20227;-54
2024/02/28 02:35:03;;;;;;;25.00;11.73;;;;;;;;;;5040673;28;20270;-53
2024/02/28 02:37:29;;;;;;;28.83;11.67;;;;;;;;;;5040993;28;20191;-54
2024/02/28 02:39:55;;;;;;;31.47;13.27;;;;;;;;;;5038750;28;20193;-53
2024/02/28 02:42:21;;;;;;;29.00;11.87;;;;;;;;;;5025563;28;20218;-56
2024/02/28 02:44:47;;;;;;;33.70;13.27;;;;;;;;;;5041188;28;20733;-54
2024/02/28 02:47:13;;;;;;;33.53;12.57;;;;;;;;;;5036691;28;20608;-56
2024/02/28 02:49:39;;;;;;;30.17;12.47;;;;;;;;;;5037280;28;20198;-57
2024/02/28 02:52:05;;;;;;;27.97;12.03;;;;;;;;;;5023173;28;20214;-58
2024/02/28 02:54:31;;;;;;;34.37;13.40;;;;;;;;;;5049389;28;20198;-56
2024/02/28 02:56:57;;;;;;;32.50;13.90;;;;;;;;;;5038255;28;20183;-57
2024/02/28 02:59:23;;;;;;;32.43;13.67;;;;;;;;;;5035337;28;20190;-53
2024/02/28 03:01:50;;;;;;;35.60;14.47;;;;;;;;;;5040836;28;20569;-55
2024/02/28 03:04:16;;;;;;;31.27;12.53;;;;;;;;;;5041176;28;20190;-55
2024/02/28 03:06:42;;;;;;;31.53;13.03;;;;;;;;;;5040479;28;20506;-57
2024/02/28 03:09:08;;;;;;;37.60;14.33;;;;;;;;;;5028808;28;20683;-56
2024/02/28 03:11:35;;;;;;;34.50;14.70;;;;;;;;;;5036733;28;20202;-52
2024/02/28 03:14:01;;;;;;;39.27;14.50;;;;;;;;;;5032553;28;20733;-57
2024/02/28 03:16:27;;;;;;;41.17;15.10;;;;;;;;;;5034695;28;20184;-55
2024/02/28 03:18:53;;;;;;;35.97;14.47;;;;;;;;;;5030390;28;20567;-55
2024/02/28 03:21:20;;;;;;;36.40;14.43;;;;;;;;;;5040925;28;20551;-55
2024/02/28 03:23:46;;;;;;;38.47;14.60;;;;;;;;;;5048399;28;20268;-54
2024/02/28 03:26:12;;;;;;;38.73;15.40;;;;;;;;;;5029186;28;20719;-53
2024/02/28 03:28:38;;;;;;;40.03;14.80;;;;;;;;;;5028784;28;20270;-54
2024/02/28 03:31:04;;;;;;;39.43;15.23;;;;;;;;;;5037216;28;20208;-52
2024/02/28 03:33:32;;;;;;;42.20;15.60;;;;;;;;;;5043939;28;20233;-53
2024/02/28 03:35:58;;;;;;;35.23;14.43;;;;;;;;;;5030286;28;20283;-53
2024/02/28 03:38:24;;;;;;;41.23;15.57;;;;;;;;;;5025160;28;20262;-52
2024/02/28 03:40:50;;;;;;;46.63;17.10;;;;;;;;;;5049125;28;20197;-54
2024/02/28 03:43:16;;;;;;;39.80;15.73;;;;;;;;;;5040524;28;20754;-52
2024/02/28 03:45:42;;;;;;;39.47;15.63;;;;;;;;;;5032742;28;20631;-52
2024/02/28 03:48:08;;;;;;;40.43;16.53;;;;;;;;;;5048336;28;20199;-53
2024/02/28 03:50:34;;;;;;;40.47;16.97;;;;;;;;;;5043027;28;20198;-53
2024/02/28 03:53:00;;;;;;;38.40;15.53;;;;;;;;;;5032840;28;20212;-53
2024/02/28 03:55:26;;;;;;;42.97;16.87;;;;;;;;;;5038604;28;20232;-57
2024/02/28 03:57:52;;;;;;;43.10;16.80;;;;;;;;;;5050916;28;20631;-52
2024/02/28 04:00:18;;;;;;;42.80;16.17;;;;;;;;;;5032770;28;20533;-53
2024/02/28 04:02:44;;;;;;;40.30;16.40;;;;;;;;;;5049331;28;20203;-55
2024/02/28 04:05:10;;;;;;;43.03;16.93;;;;;;;;;;5040273;28;20191;-55
2024/02/28 04:07:36;;;;;;;46.80;17.73;;;;;;;;;;5047851;28;20282;-56
2024/02/28 04:10:05;;;;;;;40.33;15.60;;;;;;;;;;5033484;28;20643;-53
2024/02/28 04:12:30;;;;;;;38.40;16.03;;;;;;;;;;5032408;28;20737;-53
2024/02/28 04:14:56;;;;;;;44.50;16.27;;;;;;;;;;5042429;28;20179;-53
2024/02/28 04:17:22;;;;;;;43.23;17.17;;;;;;;;;;5046303;28;20639;-55
2024/02/28 04:19:48;;;;;;;41.00;16.00;;;;;;;;;;5049597;28;20551;-53
2024/02/28 04:22:14;;;;;;;46.03;17.03;;;;;;;;;;5047907;28;20212;-54
2024/02/28 04:24:40;;;;;;;40.63;16.20;;;;;;;;;;5048258;28;20197;-57
2024/02/28 04:27:09;;;;;;;39.50;16.40;;;;;;;;;;5039908;28;20192;-54
2024/02/28 04:29:35;;;;;;;44.37;17.13;;;;;;;;;;5047675;28;20214;-54
2024/02/28 04:32:01;;;;;;;48.00;17.50;;;;;;;;;;5043605;28;20308;-52
2024/02/28 04:34:27;;;;;;;45.53;17.50;;;;;;;;;;5037682;28;20275;-55
2024/02/28 04:36:53;;;;;;;45.83;16.97;;;;;;;;;;5041142;28;20270;-58
2024/02/28 04:39:19;;;;;;;43.57;17.30;;;;;;;;;;5038324;28;20187;-55
2024/02/28 04:41:45;;;;;;;39.07;16.37;;;;;;;;;;5031758;28;20195;-58
2024/02/28 04:44:11;;;;;;;41.70;16.97;;;;;;;;;;5035407;28;20213;-53
2024/02/28 04:46:38;;;;;;;44.80;16.70;;;;;;;;;;5043773;28;20642;-55
2024/02/28 04:49:04;;;;;;;42.00;16.27;;;;;;;;;;5040056;28;20191;-56
2024/02/28 04:51:30;;;;;;;44.90;17.03;;;;;;;;;;5031601;28;20200;-54
2024/02/28 04:53:56;;;;;;;49.03;18.43;;;;;;;;;;5041626;28;20248;-54
2024/02/28 04:56:22;;;;;;;45.73;19.77;;;;;;;;;;5037072;28;20188;-56
2024/02/28 04:58:47;;;;;;;48.30;17.03;;;;;;;;;;5030988;28;20190;-54
2024/02/28 05:01:13;;;;;;;35.90;15.43;;;;;;;;;;5031751;28;20202;-53
2024/02/28 05:03:39;;;;;;;41.50;17.23;;;;;;;;;;5039206;28;20242;-53
2024/02/28 05:06:05;;;;;;;42.13;16.67;;;;;;;;;;5031338;28;20702;-53
2024/02/28 05:08:31;;;;;;;43.53;17.13;;;;;;;;;;5031080;28;20279;-52
2024/02/28 05:10:57;;;;;;;43.80;16.87;;;;;;;;;;5031436;28;20212;-53
2024/02/28 05:13:24;;;;;;;45.37;17.57;;;;;;;;;;5031476;28;20211;-56
2024/02/28 05:15:50;;;;;;;42.27;17.40;;;;;;;;;;5031414;28;20274;-53
2024/02/28 05:18:16;;;;;;;43.97;17.97;;;;;;;;;;5030807;28;20191;-53
2024/02/28 05:20:42;;;;;;;38.53;16.47;;;;;;;;;;5031280;28;20191;-53
2024/02/28 05:23:08;;;;;;;43.00;17.13;;;;;;;;;;5031041;28;20215;-54
2024/02/28 05:25:34;;;;;;;40.23;16.33;;;;;;;;;;5031162;28;20237;-52
2024/02/28 05:28:00;;;;;;;40.20;17.17;;;;;;;;;;5030520;28;20188;-53
2024/02/28 05:30:26;;;;;;;39.43;16.00;;;;;;;;;;5031088;28;20198;-56
2024/02/28 05:32:52;;;;;;;37.43;16.23;;;;;;;;;;5039157;28;20207;-56
2024/02/28 05:35:18;;;;;;;40.33;16.27;;;;;;;;;;5030888;28;20553;-56
2024/02/28 05:37:46;;;;;;;41.93;16.93;;;;;;;;;;5030297;28;20187;-57
2024/02/28 05:40:12;;;;;;;40.70;16.63;;;;;;;;;;5045168;28;20635;-55
2024/02/28 05:42:39;;;;;;;39.80;16.77;;;;;;;;;;5050805;28;20207;-55
2024/02/28 05:45:06;;;;;;;40.60;16.67;;;;;;;;;;5034209;28;20286;-59
2024/02/28 05:47:32;;;;;;;38.97;15.23;;;;;;;;;;5041653;28;20223;-54
2024/02/28 05:49:58;;;;;;;40.33;15.90;;;;;;;;;;5039347;28;20349;-59
2024/02/28 05:52:25;;;;;;;42.93;15.73;;;;;;;;;;5036000;28;20225;-56
2024/02/28 05:54:51;;;;;;;43.43;16.50;;;;;;;;;;5042143;28;20244;-54
2024/02/28 05:57:17;;;;;;;43.30;17.20;;;;;;;;;;5036963;28;20188;-54
2024/02/28 05:59:43;;;;;;;44.30;16.70;;;;;;;;;;5030714;28;20190;-58
2024/02/28 06:02:09;;;;;;;42.20;17.13;;;;;;;;;;5038229;28;20286;-56
2024/02/28 06:04:35;;;;;;;44.10;16.97;;;;;;;;;;5030348;28;20192;-57
2024/02/28 06:07:01;;;;;;;46.47;17.80;;;;;;;;;;5046067;28;20689;-55
2024/02/28 06:09:27;;;;;;;39.93;16.10;;;;;;;;;;5038703;28;20549;-52
2024/02/28 06:11:53;;;;;;;47.93;17.40;;;;;;;;;;5038407;28;20219;-53
2024/02/28 06:14:19;;;;;;;42.53;16.77;;;;;;;;;;5036179;28;20184;-57
2024/02/28 06:16:48;;;;;;;43.87;16.67;;;;;;;;;;5030158;28;20187;-54
2024/02/28 06:19:14;;;;;;;42.27;16.53;;;;;;;;;;5029753;28;20187;-53
2024/02/28 06:21:40;;;;;;;44.67;16.70;;;;;;;;;;5029839;28;20195;-53
2024/02/28 06:24:06;;;;;;;41.77;16.97;;;;;;;;;;5029848;28;20187;-58
2024/02/28 06:26:32;;;;;;;44.33;15.93;;;;;;;;;;5030004;28;20195;-55
2024/02/28 06:29:01;;;;;;;41.27;16.47;;;;;;;;;;5036580;28;20188;-53
2024/02/28 06:31:31;;;;;;;38.53;16.73;;;;;;;;;;5037340;28;20210;-53
2024/02/28 06:33:57;;;;;;;44.50;16.50;;;;;;;;;;5037533;28;20218;-56
2024/02/28 06:36:23;;;;;;;40.23;16.10;;;;;;;;;;5042382;28;20195;-53
2024/02/28 06:38:49;;;;;;;40.57;15.93;;;;;;;;;;5031775;28;20176;-53
2024/02/28 06:41:16;;;;;;;44.43;16.87;;;;;;;;;;5037434;28;20317;-55
2024/02/28 06:43:42;;;;;;;48.70;16.43;;;;;;;;;;5036901;28;20665;-54
2024/02/28 06:46:09;;;;;;;42.93;16.67;;;;;;;;;;5029658;28;20191;-55
2024/02/28 06:48:35;;;;;;;43.77;16.80;;;;;;;;;;5035411;28;20722;-57
2024/02/28 06:51:01;;;;;;;46.70;17.37;;;;;;;;;;5040342;28;20215;-56
2024/02/28 06:53:27;;;;;;;45.87;18.77;;;;;;;;;;5036569;28;20291;-58
2024/02/28 06:55:53;;;;;;;44.70;17.93;;;;;;;;;;5038219;28;20262;-53
2024/02/28 06:58:19;;;;;;;47.30;18.23;;;;;;;;;;5043483;28;20184;-54
2024/02/28 07:00:45;;;;;;;44.00;16.47;;;;;;;;;;5028999;28;20191;-58
2024/02/28 07:03:11;;;;;;;45.80;17.40;;;;;;;;;;5036955;28;20215;-52
2024/02/28 07:05:37;;;;;;;43.43;16.40;;;;;;;;;;5028762;28;20187;-54
2024/02/28 07:08:03;;;;;;;45.60;16.53;;;;;;;;;;5028455;28;20191;-56
2024/02/28 07:10:29;;;;;;;45.77;16.67;;;;;;;;;;5043077;28;20179;-56
2024/02/28 07:12:55;;;;;;;52.27;18.87;;;;;;;;;;5038737;28;20321;-56
2024/02/28 07:15:21;;;;;;;44.90;16.97;;;;;;;;;;5033638;28;20223;-52
2024/02/28 07:17:48;;;;;;;51.90;18.13;;;;;;;;;;5031245;28;20245;-58
2024/02/28 07:20:14;;;;;;;45.97;17.10;;;;;;;;;;5032454;28;20647;-55
2024/02/28 07:22:40;;;;;;;45.60;16.60;;;;;;;;;;5040889;28;20533;-56
2024/02/28 07:25:07;;;;;;;50.13;18.73;;;;;;;;;;5029101;28;20191;-54
2024/02/28 07:27:33;;;;;;;43.93;16.77;;;;;;;;;;5040201;28;20659;-55
2024/02/28 07:29:59;;;;;;;43.83;17.03;;;;;;;;;;5034336;28;20214;-55
2024/02/28 07:32:25;;;;;;;47.30;17.73;;;;;;;;;;5047007;28;20633;-57
2024/02/28 07:34:51;;;;;;;43.13;15.93;;;;;;;;;;5040514;28;20211;-56
2024/02/28 07:37:17;;;;;;;44.97;16.63;;;;;;;;;;5036045;28;20226;-54
2024/02/28 07:39:43;;;;;;;41.53;15.77;;;;;;;;;;5044375;28;20203;-57
2024/02/28 07:42:09;;;;;;;39.63;14.77;;;;;;;;;;5052010;28;20210;-54
2024/02/28 07:44:35;;;;;;;40.33;15.43;;;;;;;;;;5036591;28;20207;-54
2024/02/28 07:47:01;;;;;;;40.37;16.57;;;;;;;;;;5038401;28;20275;-52
2024/02/28 07:49:27;;;;;;;42.53;15.67;;;;;;;;;;5037644;28;20187;-53
2024/02/28 07:51:53;;;;;;;36.80;14.17;;;;;;;;;;5043854;28;20215;-54
2024/02/28 07:54:19;;;;;;;42.03;14.67;;;;;;;;;;5047567;28;20184;-52
2024/02/28 07:56:45;;;;;;;38.70;14.97;;;;;;;;;;5040197;28;20219;-53
2024/02/28 07:59:11;;;;;;;33.27;13.27;;;;;;;;;;5048136;28;20477;-53
2024/02/28 08:01:39;;;;;;;33.17;13.60;;;;;;;;;;5040237;28;20655;-51
2024/02/28 08:04:05;;;;;;;31.17;13.07;;;;;;;;;;5040130;28;20191;-57
2024/02/28 08:06:33;;;;;;;36.07;14.77;;;;;;;;;;5037799;28;20596;-51
2024/02/28 08:08:59;;;;;;;33.10;14.17;;;;;;;;;;5034825;28;20192;-52
2024/02/28 08:11:25;;;;;;;35.03;13.57;;;;;;;;;;5038024;28;20530;-51
2024/02/28 08:13:52;;;;;;;38.13;13.93;;;;;;;;;;5040758;28;20226;-54
2024/02/28 08:16:18;;;;;;;30.27;12.60;;;;;;;;;;5046859;28;20272;-55
2024/02/28 08:18:44;;;;;;;32.03;12.87;;;;;;;;;;5039127;28;20202;-51
2024/02/28 08:21:10;;;;;;;34.60;13.87;;;;;;;;;;5043422;28;20567;-56
2024/02/28 08:23:36;;;;;;;30.33;12.83;;;;;;;;;;5036244;28;20215;-55
2024/02/28 08:26:03;;;;;;;29.47;13.43;;;;;;;;;;5041695;28;20183;-55
2024/02/28 08:28:29;;;;;;;31.73;13.00;;;;;;;;;;5036724;28;20192;-51
2024/02/28 08:30:55;;;;;;;32.57;13.53;;;;;;;;;;5039464;28;20576;-50
2024/02/28 08:33:21;;;;;;;35.23;14.40;;;;;;;;;;5044407;28;20264;-52
2024/02/28 08:35:49;;;;;;;30.23;12.80;;;;;;;;;;5051133;28;20550;-56
2024/02/28 08:38:15;;;;;;;27.17;12.37;;;;;;;;;;5037789;28;20196;-51
2024/02/28 08:40:41;;;;;;;28.33;12.43;;;;;;;;;;5039627;28;20191;-52
2024/02/28 08:43:07;;;;;;;30.60;13.07;;;;;;;;;;5033837;28;20558;-54
2024/02/28 08:45:33;;;;;;;31.30;12.93;;;;;;;;;;5036205;28;20179;-51
2024/02/28 08:48:01;;;;;;;30.37;12.63;;;;;;;;;;5030737;28;20207;-58
2024/02/28 08:50:28;;;;;;;29.30;12.73;;;;;;;;;;5031387;28;20535;-60
2024/02/28 08:52:54;;;;;;;33.13;12.87;;;;;;;;;;5048545;28;20235;-59
2024/02/28 08:55:21;;;;;;;29.77;12.30;;;;;;;;;;5038673;28;20233;-60
2024/02/28 08:57:47;;;;;;;27.03;12.17;;;;;;;;;;5038519;28;20571;-58
2024/02/28 09:00:15;;;;;;;28.63;12.00;;;;;;;;;;5043072;28;20179;-60
2024/02/28 09:02:41;;;;;;;24.77;10.83;;;;;;;;;;5035750;28;20212;-59
2024/02/28 09:05:08;;;;;;;25.37;10.57;;;;;;;;;;5033348;28;20197;-59
2024/02/28 09:07:35;;;;;;;24.30;11.33;;;;;;;;;;5035527;28;20183;-60
2024/02/28 09:10:02;;;;;;;24.23;10.63;;;;;;;;;;5040849;28;20260;-59
2024/02/28 09:12:28;;;;;;;27.77;11.17;;;;;;;;;;5044814;28;20729;-60
2024/02/28 09:14:54;;;;;;;21.30;10.03;;;;;;;;;;5039428;28;20183;-60
2024/02/28 09:17:20;;;;;;;25.60;10.23;;;;;;;;;;5038778;28;20267;-58
2024/02/28 09:19:46;;;;;;;24.10;11.10;;;;;;;;;;5038021;28;20188;-54
2024/02/28 09:22:12;;;;;;;20.23;9.80;;;;;;;;;;5030926;28;20264;-60
2024/02/28 09:24:38;;;;;;;24.40;9.33;;;;;;;;;;5034978;28;20267;-58
2024/02/28 09:27:04;;;;;;;22.60;10.00;;;;;;;;;;5038095;28;20187;-58
2024/02/28 09:29:30;;;;;;;27.20;10.33;;;;;;;;;;5036790;28;20199;-59
2024/02/28 09:31:56;;;;;;;23.40;9.90;;;;;;;;;;5040343;28;20718;-60
2024/02/28 09:34:22;;;;;;;25.93;12.00;;;;;;;;;;5038518;28;20180;-58
2024/02/28 09:36:48;;;;;;;24.90;11.47;;;;;;;;;;5038943;28;20184;-59
2024/02/28 09:39:15;;;;;;;26.00;11.37;;;;;;;;;;5037504;28;20538;-60
2024/02/28 09:41:44;;;;;;;23.87;10.50;;;;;;;;;;5030497;28;20196;-59
2024/02/28 09:44:11;;;;;;;31.23;11.20;;;;;;;;;;5030208;28;20414;-60
2024/02/28 09:46:37;;;;;;;24.47;10.13;;;;;;;;;;5029852;28;20184;-60
2024/02/28 09:49:06;;;;;;;22.87;11.23;;;;;;;;;;5039701;28;20198;-60
2024/02/28 09:51:35;;;;;;;26.43;11.03;;;;;;;;;;5035654;28;20212;-58
2024/02/28 09:54:04;;;;;;;24.33;10.47;;;;;;;;;;5029600;28;20291;-60
2024/02/28 09:56:30;;;;;;;21.30;9.17;;;;;;;;;;5035684;28;20278;-59
2024/02/28 09:58:56;;;;;;;22.87;10.27;;;;;;;;;;5031700;28;20195;-58
2024/02/28 10:01:22;;;;;;;20.53;9.80;;;;;;;;;;5029665;28;20188;-58
2024/02/28 10:03:51;;;;;;;28.93;9.93;;;;;;;;;;5029828;28;20210;-59
2024/02/28 10:06:18;;;;;;;22.20;10.43;;;;;;;;;;5049705;28;20237;-60
2024/02/28 10:08:47;;;;;;;21.27;10.07;;;;;;;;;;5040977;28;20191;-59
2024/02/28 10:11:17;;;;;;;20.43;9.97;;;;;;;;;;5049670;28;20219;-59
2024/02/28 10:13:43;;;;;;;21.93;10.77;;;;;;;;;;5033560;28;20204;-58
2024/02/28 10:16:09;;;;;;;21.43;10.70;;;;;;;;;;5037229;28;20325;-58
2024/02/28 10:18:35;;;;;;;22.47;10.50;;;;;;;;;;5029376;28;20298;-59
2024/02/28 10:21:01;;;;;;;20.67;10.47;;;;;;;;;;5037378;28;20194;-60
2024/02/28 10:23:27;;;;;;;20.03;9.73;;;;;;;;;;5043192;28;20256;-61
2024/02/28 10:25:53;;;;;;;22.53;10.57;;;;;;;;;;5040718;28;20203;-60
2024/02/28 10:28:19;;;;;;;21.87;11.20;;;;;;;;;;5028873;28;20183;-58
2024/02/28 10:30:45;;;;;;;23.43;11.17;;;;;;;;;;5037384;28;20192;-58
2024/02/28 10:33:13;;;;;;;22.30;10.83;;;;;;;;;;5037667;28;20256;-60
2024/02/28 10:35:39;;;;;;;20.73;9.83;;;;;;;;;;5035813;28;20183;-59
2024/02/28 10:38:06;;;;;;;19.63;9.10;;;;;;;;;;5029465;28;20213;-59
2024/02/28 10:40:32;;;;;;;22.27;9.63;;;;;;;;;;5043575;28;20187;-58
2024/02/28 10:42:58;;;;;;;17.13;8.23;;;;;;;;;;5039257;28;20214;-59
2024/02/28 10:45:25;;;;;;;19.47;9.33;;;;;;;;;;5034223;28;20219;-60
2024/02/28 10:47:51;;;;;;;20.60;9.20;;;;;;;;;;5039750;28;20225;-59
2024/02/28 10:50:18;;;;;;;19.27;9.10;;;;;;;;;;5028943;28;20599;-59
2024/02/28 10:52:49;;;;;;;19.07;9.27;;;;;;;;;;5037366;28;20261;-60
2024/02/28 10:55:17;;;;;;;16.13;8.10;;;;;;;;;;5037304;28;20179;-57
2024/02/28 10:57:43;;;;;;;20.20;9.33;;;;;;;;;;5028558;28;20176;-60
2024/02/28 11:00:09;;;;;;;21.27;9.33;;;;;;;;;;5044772;28;20188;-59
2024/02/28 11:02:35;;;;;;;19.57;8.87;;;;;;;;;;5035116;28;20714;-56
2024/02/28 11:05:01;;;;;;;32.30;10.90;;;;;;;;;;5032191;28;20655;-60
2024/02/28 11:07:27;;;;;;;19.90;9.53;;;;;;;;;;5034327;28;20187;-59
2024/02/28 11:09:56;;;;;;;19.07;9.17;;;;;;;;;;5028932;28;20180;-60
2024/02/28 11:12:27;;;;;;;18.53;9.40;;;;;;;;;;5041816;28;20289;-58
2024/02/28 11:14:59;;;;;;;18.67;8.93;;;;;;;;;;5032626;28;20176;-57
2024/02/28 11:17:33;;;;;;;28.77;9.17;;;;;;;;;;5039963;28;20182;-59
2024/02/28 11:19:59;;;;;;;23.90;9.57;;;;;;;;;;5032264;28;20204;-59
2024/02/28 11:22:28;;;;;;;19.03;9.27;;;;;;;;;;5035621;28;20648;-59
2024/02/28 11:24:55;;;;;;;19.03;9.10;;;;;;;;;;5045142;28;20179;-59
2024/02/28 11:27:21;;;;;;;18.00;9.03;;;;;;;;;;5028376;28;20183;-59
2024/02/28 11:29:49;;;;;;;22.50;8.90;;;;;;;;;;5036717;28;20257;-56
2024/02/28 11:32:15;;;;;;;21.50;9.47;;;;;;;;;;5019319;28;20226;-60
2024/02/28 11:34:42;;;;;;;18.83;9.70;;;;;;;;;;5029050;28;20184;-59
2024/02/28 11:37:09;;;;;;;19.17;8.77;;;;;;;;;;5027952;28;20184;-60
2024/02/28 11:39:36;;;;;;;20.97;9.37;;;;;;;;;;5028596;28;20268;-62
2024/02/28 11:42:13;;;;;;;20.97;9.17;;;;;;;;;;5038620;28;20204;-61
2024/02/28 11:44:40;;;;;;;17.37;8.60;;;;;;;;;;5041433;28;20199;-59
2024/02/28 11:47:06;;;;;;;18.77;8.97;;;;;;;;;;5027745;28;20237;-60
2024/02/28 11:49:33;;;;;;;17.73;8.23;;;;;;;;;;5024820;28;20187;-58
2024/02/28 11:51:59;;;;;;;18.40;9.10;;;;;;;;;;5038356;28;20263;-59
2024/02/28 11:54:25;;;;;;;17.10;8.03;;;;;;;;;;5033311;28;20274;-63
2024/02/28 11:56:51;;;;;;;17.07;9.20;;;;;;;;;;5031427;28;20206;-60
2024/02/28 11:59:18;;;;;;;16.47;8.13;;;;;;;;;;5027790;28;20695;-61
2024/02/28 12:01:44;;;;;;;17.43;8.40;;;;;;;;;;5044650;28;20179;-62
2024/02/28 12:04:10;;;;;;;16.37;7.73;;;;;;;;;;5037202;28;20186;-59
2024/02/28 12:06:37;;;;;;;19.43;9.33;;;;;;;;;;5042667;28;20267;-61
2024/02/28 12:09:03;;;;;;;16.70;8.30;;;;;;;;;;5031173;28;20721;-60
2024/02/28 12:11:30;;;;;;;16.33;7.93;;;;;;;;;;5041097;28;20570;-59
2024/02/28 12:13:56;;;;;;;13.70;7.10;;;;;;;;;;5034393;28;20179;-59
2024/02/28 12:16:23;;;;;;;19.60;7.23;;;;;;;;;;5040204;28;20267;-60
2024/02/28 12:18:49;;;;;;;12.77;6.87;;;;;;;;;;5039747;28;20242;-58
2024/02/28 12:21:15;;;;;;;14.20;7.43;;;;;;;;;;5051387;28;20195;-61
2024/02/28 12:23:41;;;;;;;14.70;7.33;;;;;;;;;;5043649;28;20202;-60
2024/02/28 12:26:07;;;;;;;20.93;7.70;;;;;;;;;;5041293;28;20187;-62
2024/02/28 12:28:34;;;;;;;26.73;8.30;;;;;;;;;;5031491;28;20180;-58
2024/02/28 12:31:00;;;;;;;14.65;8.02;;;;;;;;;;5040656;28;20412;-61
2024/02/28 12:33:26;;;;;;;14.53;6.97;;;;;;;;;;5046406;28;20283;-61
2024/02/28 12:35:52;;;;;;;14.60;5.70;;;;;;;;;;5030971;28;21043;-59
2024/02/28 12:38:19;;;;;;;11.47;5.87;;;;;;;;;;5030955;28;20176;-59
2024/02/28 12:40:45;;;;;;;10.87;5.77;;;-0.10;99.90;;;;;;5039807;28;20184;-58
2024/02/28 12:43:11;;;;;;;10.93;5.10;;;14.20;99.90;;;;;;5041568;28;20209;-60
2024/02/28 12:45:36;;;;;;;12.40;6.13;;;13.80;99.90;;;;;;5051481;28;20183;-58
2024/02/28 12:48:02;;;;;;;10.07;5.30;;;14.00;99.90;;;;;;5051084;28;20291;-59
2024/02/28 12:50:27;;;;;;;12.57;5.90;;;14.50;99.90;;;;;;5045695;28;20225;-59
2024/02/28 12:52:53;;;;;;;10.20;5.50;;;14.70;99.90;;;;;;5031052;28;20618;-59
2024/02/28 12:55:21;;;;;;;10.80;5.60;;;14.70;99.90;;;;;;5035747;28;20198;-55
2024/02/28 12:57:47;;;;;;;11.37;5.37;;;14.60;99.90;;;;;;5050476;28;20190;-59
2024/02/28 13:00:13;;;;;;;9.83;5.03;;;14.70;99.90;;;;;;5039639;28;20232;-59
2024/02/28 13:02:38;;;;;;;15.30;5.63;;;14.80;99.90;;;;;;5031351;28;20200;-58
2024/02/28 13:05:04;;;;;;;10.93;5.57;;;14.60;99.90;;;;;;5030911;28;20176;-58
2024/02/28 13:07:30;;;;;;;10.07;5.30;;;14.70;99.90;;;;;;5038403;28;20271;-59
2024/02/28 13:09:56;;;;;;;10.70;5.30;;;14.50;99.90;;;;;;5039175;28;20257;-59
2024/02/28 13:12:22;;;;;;;8.80;5.00;;;14.60;99.90;;;;;;5035084;28;20735;-58
2024/02/28 13:14:48;;;;;;;11.53;4.57;;;14.50;99.90;;;;;;5034701;28;20283;-58
2024/02/28 13:17:14;;;;;;;11.63;4.80;;;14.70;99.90;;;;;;5030014;28;20207;-58
2024/02/28 13:19:40;;;;;;;15.63;6.50;;;14.90;99.90;;;;;;5037798;28;20259;-57
2024/02/28 13:22:06;;;;;;;17.07;7.77;;;15.10;99.90;;;;;;5033782;28;20695;-58
2024/02/28 13:24:32;;;;;;;15.13;6.73;;;15.00;99.90;;;;;;5035919;28;20644;-57
2024/02/28 13:26:57;;;;;;;13.60;6.77;;;15.00;99.90;;;;;;5039119;28;20663;-58
2024/02/28 13:29:23;;;;;;;13.80;7.13;;;14.80;99.90;;;;;;5037965;28;20190;-59
2024/02/28 13:31:48;;;;;;;11.60;6.33;;;14.60;99.90;;;;;;5012399;28;20208;-57
2024/02/28 13:34:14;;;;;;;11.17;6.07;;;14.60;99.90;;;;;;5038451;28;20188;-58
2024/02/28 13:36:42;;;;;;;11.27;5.97;;;14.70;99.90;;;;;;5037104;28;20266;-59
2024/02/28 13:39:10;;;;;;;13.13;6.60;;;14.70;99.90;;;;;;5030586;28;20183;-59
2024/02/28 13:41:36;;;;;;;11.00;5.97;;;14.80;99.90;;;;;;5038469;28;20199;-56
2024/02/28 13:44:02;;;;;;;11.83;6.40;;;14.90;99.90;;;;;;5038446;28;20215;-58
2024/02/28 13:46:27;;;;;;;11.50;6.80;;;14.80;99.90;;;;;;5029955;28;20184;-57
2024/02/28 13:48:53;;;;;;;14.57;6.50;;;14.60;99.90;;;;;;5037931;28;20266;-59
2024/02/28 13:51:19;;;;;;;12.70;6.50;;;14.40;99.90;;;;;;5029980;28;20208;-61
2024/02/28 13:53:44;;;;;;;13.20;7.43;;;14.50;99.90;;;;;;5029900;28;20287;-60
2024/02/28 13:56:10;;;;;;;11.83;6.73;;;14.50;99.90;;;;;;5029448;28;20218;-58
2024/02/28 13:58:35;;;;;;;14.07;6.77;;;14.40;99.90;;;;;;5029549;28;20184;-60